createdAt,value
2022-12-22T00:00:05.622Z,12.60
2022-12-22T00:05:20.587Z,12.15
2022-12-22T00:10:35.804Z,11.48
2022-12-22T00:15:53.685Z,11.75
2022-12-22T00:21:09.024Z,11.93
2022-12-22T00:26:23.774Z,10.82
2022-12-22T00:31:39.544Z,10.75
2022-12-22T00:36:55.433Z,11.20
2022-12-22T00:42:10.469Z,10.98
2022-12-22T00:47:31.399Z,11.73
2022-12-22T00:52:46.591Z,11.80
2022-12-22T00:58:01.875Z,11.48
2022-12-22T01:03:17.358Z,10.00
2022-12-22T01:08:32.728Z,10.23
2022-12-22T01:13:47.819Z,10.68
2022-12-22T01:19:02.633Z,10.48
2022-12-22T01:24:17.770Z,9.43
2022-12-22T01:29:32.850Z,10.02
2022-12-22T01:34:47.896Z,10.68
2022-12-22T01:40:03.447Z,9.85
2022-12-22T01:45:45.482Z,10.13
2022-12-22T01:51:01.683Z,10.07
2022-12-22T01:56:17.945Z,10.27
2022-12-22T02:01:36.326Z,10.57
2022-12-22T02:07:00.199Z,10.63
2022-12-22T02:12:27.065Z,10.07
2022-12-22T02:17:47.029Z,9.90
2022-12-22T02:23:29.904Z,9.85
2022-12-22T02:28:45.047Z,10.85
2022-12-22T02:34:01.040Z,10.07
2022-12-22T02:39:22.134Z,9.70
2022-12-22T02:45:18.960Z,9.48
2022-12-22T02:50:51.482Z,8.90
2022-12-22T02:56:06.879Z,9.43
2022-12-22T03:01:23.202Z,9.88
2022-12-22T03:06:38.648Z,9.23
2022-12-22T03:11:53.433Z,8.93
2022-12-22T03:17:08.399Z,8.25
2022-12-22T03:22:23.323Z,8.75
2022-12-22T03:27:19.911Z,8.38
2022-12-22T03:32:16.400Z,8.82
2022-12-22T03:37:12.852Z,7.88
2022-12-22T03:42:31.269Z,8.55
2022-12-22T03:47:27.778Z,7.93
2022-12-22T03:52:24.402Z,8.55
2022-12-22T03:57:20.972Z,7.78
2022-12-22T04:02:17.571Z,8.30
2022-12-22T04:07:14.159Z,7.90
2022-12-22T04:12:28.981Z,8.07
2022-12-22T04:17:25.422Z,8.82
2022-12-22T04:22:21.909Z,9.18
2022-12-22T04:27:18.408Z,9.77
2022-12-22T04:32:14.956Z,8.98
2022-12-22T04:37:17.132Z,8.60
2022-12-22T04:42:14.067Z,9.30
2022-12-22T04:47:10.543Z,8.63
2022-12-22T04:52:07.179Z,8.85
2022-12-22T04:57:03.667Z,8.70
2022-12-22T05:02:00.285Z,8.40
2022-12-22T05:06:56.835Z,9.23
2022-12-22T05:11:53.297Z,8.80
2022-12-22T05:16:50.068Z,8.02
2022-12-22T05:21:46.616Z,8.77
2022-12-22T05:26:43.256Z,9.05
2022-12-22T05:31:46.741Z,10.18
2022-12-22T05:36:43.709Z,9.27
2022-12-22T05:41:40.294Z,9.45
2022-12-22T05:46:36.899Z,9.90
2022-12-22T05:51:35.317Z,10.43
2022-12-22T05:56:31.826Z,9.50
2022-12-22T06:01:28.359Z,9.95
2022-12-22T06:06:24.818Z,10.18
2022-12-22T06:11:21.775Z,9.98
2022-12-22T06:16:18.372Z,10.32
2022-12-22T06:21:14.835Z,10.50
2022-12-22T06:26:11.286Z,10.13
2022-12-22T06:31:07.741Z,10.60
2022-12-22T06:36:08.094Z,11.43
2022-12-22T06:41:04.554Z,11.02
2022-12-22T06:46:01.191Z,10.95
2022-12-22T06:50:59.590Z,10.93
2022-12-22T06:55:58.160Z,10.95
2022-12-22T07:00:56.369Z,11.30
2022-12-22T07:05:52.842Z,11.23
2022-12-22T07:10:58.443Z,11.68
2022-12-22T07:16:07.278Z,12.27
2022-12-22T07:21:26.415Z,11.65
2022-12-22T08:44:25.720Z,12.82
2022-12-22T08:54:34.168Z,11.57
2022-12-22T08:59:30.642Z,12.23
2022-12-22T09:56:45.387Z,12.27
2022-12-22T10:07:02.553Z,14.30
2022-12-22T10:33:11.791Z,12.48
2022-12-22T10:38:26.594Z,12.27
2022-12-22T10:43:28.410Z,12.30
2022-12-22T10:48:30.523Z,11.48
2022-12-22T10:53:51.698Z,12.20
2022-12-22T10:59:20.978Z,11.73
2022-12-22T11:04:18.550Z,11.82
2022-12-22T11:09:33.203Z,12.48
2022-12-22T11:14:57.197Z,12.40
2022-12-22T11:20:02.510Z,11.52
2022-12-22T11:25:26.791Z,12.15
2022-12-22T11:31:06.744Z,10.52
2022-12-22T11:36:06.244Z,10.07
2022-12-22T11:41:15.806Z,9.90
2022-12-22T11:46:23.574Z,9.20
2022-12-22T11:51:27.932Z,11.02
2022-12-22T11:56:55.245Z,10.82
2022-12-22T12:02:18.680Z,12.63
2022-12-22T12:07:32.290Z,10.20
2022-12-22T12:12:42.740Z,10.82
2022-12-22T12:17:58.104Z,9.70
2022-12-22T12:23:17.850Z,9.27
2022-12-22T12:28:22.236Z,9.25
2022-12-22T12:33:37.105Z,8.90
2022-12-22T12:44:01.131Z,9.10
2022-12-22T12:48:57.739Z,10.00
2022-12-22T12:54:42.690Z,9.60
2022-12-22T12:59:42.077Z,9.23
2022-12-22T13:05:12.885Z,9.10
2022-12-22T13:10:23.197Z,8.38
2022-12-22T13:15:28.317Z,8.05
2022-12-22T13:20:33.703Z,6.22
2022-12-22T13:25:53.758Z,6.15
2022-12-22T13:30:53.709Z,7.35
2022-12-22T13:35:56.512Z,6.55
2022-12-22T13:40:55.135Z,6.57
2022-12-22T13:45:56.893Z,6.25
2022-12-22T13:51:02.555Z,7.18
2022-12-22T13:55:59.248Z,6.78
2022-12-22T14:01:25.209Z,7.00
2022-12-22T14:06:29.379Z,7.20
2022-12-22T14:11:25.995Z,7.00
2022-12-22T14:16:24.005Z,6.38
2022-12-22T14:21:20.696Z,7.68
2022-12-22T14:26:25.883Z,7.57
2022-12-22T14:31:22.390Z,6.95
2022-12-22T14:36:24.684Z,7.15
2022-12-22T14:41:42.758Z,6.25
2022-12-22T14:51:36.039Z,6.47
2022-12-22T14:56:32.544Z,7.35
2022-12-22T15:01:29.163Z,7.90
2022-12-22T15:06:28.427Z,8.30
2022-12-22T15:11:25.123Z,7.65
2022-12-22T15:16:22.815Z,7.43
2022-12-22T15:21:19.764Z,8.52
2022-12-22T15:31:15.398Z,7.57
2022-12-22T15:36:13.688Z,8.00
2022-12-22T15:41:10.277Z,7.53
2022-12-22T15:46:07.255Z,7.05
2022-12-22T15:51:06.315Z,6.95
2022-12-22T15:56:03.230Z,7.28
